sensor_id;sensor_type;location;lat;lon;timestamp;temperature;humidity
53962;DHT22;39868;53.398;6.564;2023-04-15T00:00:56;9.60;66.60
53962;DHT22;39868;53.398;6.564;2023-04-15T00:03:24;9.50;66.60
53962;DHT22;39868;53.398;6.564;2023-04-15T00:05:52;9.50;66.70
53962;DHT22;39868;53.398;6.564;2023-04-15T00:08:20;9.50;66.70
53962;DHT22;39868;53.398;6.564;2023-04-15T00:10:47;9.40;66.70
53962;DHT22;39868;53.398;6.564;2023-04-15T00:13:15;9.40;66.70
53962;DHT22;39868;53.398;6.564;2023-04-15T00:15:42;9.40;66.80
53962;DHT22;39868;53.398;6.564;2023-04-15T00:18:09;9.40;66.80
53962;DHT22;39868;53.398;6.564;2023-04-15T00:20:37;9.30;66.80
53962;DHT22;39868;53.398;6.564;2023-04-15T00:23:04;9.30;66.80
53962;DHT22;39868;53.398;6.564;2023-04-15T00:25:31;9.30;67.00
53962;DHT22;39868;53.398;6.564;2023-04-15T00:27:59;9.20;67.00
53962;DHT22;39868;53.398;6.564;2023-04-15T00:30:26;9.20;67.10
53962;DHT22;39868;53.398;6.564;2023-04-15T00:32:53;9.20;67.30
53962;DHT22;39868;53.398;6.564;2023-04-15T00:35:21;9.20;67.20
53962;DHT22;39868;53.398;6.564;2023-04-15T00:37:50;9.10;67.20
53962;DHT22;39868;53.398;6.564;2023-04-15T00:40:18;9.10;67.50
53962;DHT22;39868;53.398;6.564;2023-04-15T00:42:47;9.10;67.50
53962;DHT22;39868;53.398;6.564;2023-04-15T00:45:14;9.10;67.40
53962;DHT22;39868;53.398;6.564;2023-04-15T00:47:42;9.10;67.50
53962;DHT22;39868;53.398;6.564;2023-04-15T00:50:12;9.00;67.60
53962;DHT22;39868;53.398;6.564;2023-04-15T00:52:40;9.00;67.80
53962;DHT22;39868;53.398;6.564;2023-04-15T00:55:08;9.00;67.80
53962;DHT22;39868;53.398;6.564;2023-04-15T00:57:36;9.00;67.70
53962;DHT22;39868;53.398;6.564;2023-04-15T01:00:05;9.00;68.00
53962;DHT22;39868;53.398;6.564;2023-04-15T01:02:34;9.00;68.70
53962;DHT22;39868;53.398;6.564;2023-04-15T01:05:03;9.00;68.20
53962;DHT22;39868;53.398;6.564;2023-04-15T01:07:31;9.00;68.30
53962;DHT22;39868;53.398;6.564;2023-04-15T01:09:58;9.00;68.40
53962;DHT22;39868;53.398;6.564;2023-04-15T01:12:26;8.90;68.30
53962;DHT22;39868;53.398;6.564;2023-04-15T01:14:54;8.90;68.40
53962;DHT22;39868;53.398;6.564;2023-04-15T01:17:23;8.90;68.40
53962;DHT22;39868;53.398;6.564;2023-04-15T01:19:52;8.90;68.40
53962;DHT22;39868;53.398;6.564;2023-04-15T01:22:23;8.90;68.30
53962;DHT22;39868;53.398;6.564;2023-04-15T01:25:11;8.90;68.40
53962;DHT22;39868;53.398;6.564;2023-04-15T01:27:40;8.90;68.30
53962;DHT22;39868;53.398;6.564;2023-04-15T01:30:09;8.90;68.30
53962;DHT22;39868;53.398;6.564;2023-04-15T01:32:36;8.80;68.30
53962;DHT22;39868;53.398;6.564;2023-04-15T01:35:04;8.80;68.50
53962;DHT22;39868;53.398;6.564;2023-04-15T01:37:32;8.80;68.60
53962;DHT22;39868;53.398;6.564;2023-04-15T01:39:59;8.80;68.60
53962;DHT22;39868;53.398;6.564;2023-04-15T01:42:27;8.80;68.50
53962;DHT22;39868;53.398;6.564;2023-04-15T01:44:54;8.70;68.50
53962;DHT22;39868;53.398;6.564;2023-04-15T01:47:22;8.70;68.70
53962;DHT22;39868;53.398;6.564;2023-04-15T01:49:49;8.70;68.80
53962;DHT22;39868;53.398;6.564;2023-04-15T01:52:16;8.60;68.60
53962;DHT22;39868;53.398;6.564;2023-04-15T01:54:44;8.60;68.70
53962;DHT22;39868;53.398;6.564;2023-04-15T01:57:12;8.60;68.70
53962;DHT22;39868;53.398;6.564;2023-04-15T01:59:39;8.60;68.80
53962;DHT22;39868;53.398;6.564;2023-04-15T02:02:07;8.60;68.90
53962;DHT22;39868;53.398;6.564;2023-04-15T02:04:34;8.50;68.90
53962;DHT22;39868;53.398;6.564;2023-04-15T02:07:01;8.50;68.80
53962;DHT22;39868;53.398;6.564;2023-04-15T02:09:28;8.50;68.70
53962;DHT22;39868;53.398;6.564;2023-04-15T02:11:56;8.50;68.80
53962;DHT22;39868;53.398;6.564;2023-04-15T02:14:23;8.50;68.90
53962;DHT22;39868;53.398;6.564;2023-04-15T02:16:53;8.50;69.00
53962;DHT22;39868;53.398;6.564;2023-04-15T02:19:20;8.40;69.00
53962;DHT22;39868;53.398;6.564;2023-04-15T02:21:48;8.40;69.10
53962;DHT22;39868;53.398;6.564;2023-04-15T02:24:16;8.40;69.30
53962;DHT22;39868;53.398;6.564;2023-04-15T02:26:44;8.40;69.40
53962;DHT22;39868;53.398;6.564;2023-04-15T02:29:14;8.40;69.30
53962;DHT22;39868;53.398;6.564;2023-04-15T02:31:41;8.40;69.40
53962;DHT22;39868;53.398;6.564;2023-04-15T02:34:10;8.40;69.50
53962;DHT22;39868;53.398;6.564;2023-04-15T02:36:37;8.40;69.70
53962;DHT22;39868;53.398;6.564;2023-04-15T02:39:06;8.40;70.00
53962;DHT22;39868;53.398;6.564;2023-04-15T02:41:33;8.30;69.90
53962;DHT22;39868;53.398;6.564;2023-04-15T02:44:02;8.40;70.00
53962;DHT22;39868;53.398;6.564;2023-04-15T02:46:30;8.40;70.40
53962;DHT22;39868;53.398;6.564;2023-04-15T02:48:57;8.30;70.50
53962;DHT22;39868;53.398;6.564;2023-04-15T02:51:29;8.40;70.80
53962;DHT22;39868;53.398;6.564;2023-04-15T02:54:00;8.40;71.10
53962;DHT22;39868;53.398;6.564;2023-04-15T02:56:27;8.40;71.30
53962;DHT22;39868;53.398;6.564;2023-04-15T02:58:56;8.40;71.30
53962;DHT22;39868;53.398;6.564;2023-04-15T03:01:24;8.40;71.90
53962;DHT22;39868;53.398;6.564;2023-04-15T03:03:52;8.40;72.60
53962;DHT22;39868;53.398;6.564;2023-04-15T03:06:19;8.40;72.60
53962;DHT22;39868;53.398;6.564;2023-04-15T03:08:49;8.40;72.80
53962;DHT22;39868;53.398;6.564;2023-04-15T03:11:18;8.40;72.70
53962;DHT22;39868;53.398;6.564;2023-04-15T03:13:46;8.40;72.60
53962;DHT22;39868;53.398;6.564;2023-04-15T03:16:28;8.40;72.40
53962;DHT22;39868;53.398;6.564;2023-04-15T03:18:57;8.40;72.10
53962;DHT22;39868;53.398;6.564;2023-04-15T03:21:24;8.30;72.20
53962;DHT22;39868;53.398;6.564;2023-04-15T03:23:53;8.30;72.50
53962;DHT22;39868;53.398;6.564;2023-04-15T03:28:54;8.30;72.70
53962;DHT22;39868;53.398;6.564;2023-04-15T03:31:22;8.40;73.00
53962;DHT22;39868;53.398;6.564;2023-04-15T03:33:50;8.40;72.90
53962;DHT22;39868;53.398;6.564;2023-04-15T03:36:17;8.40;73.40
53962;DHT22;39868;53.398;6.564;2023-04-15T03:38:44;8.40;73.90
53962;DHT22;39868;53.398;6.564;2023-04-15T03:41:12;8.40;73.60
53962;DHT22;39868;53.398;6.564;2023-04-15T03:43:39;8.50;73.80
53962;DHT22;39868;53.398;6.564;2023-04-15T03:46:07;8.50;74.00
53962;DHT22;39868;53.398;6.564;2023-04-15T03:48:34;8.50;74.20
53962;DHT22;39868;53.398;6.564;2023-04-15T03:51:02;8.50;74.00
53962;DHT22;39868;53.398;6.564;2023-04-15T03:53:29;8.50;73.80
53962;DHT22;39868;53.398;6.564;2023-04-15T03:55:56;8.50;73.80
53962;DHT22;39868;53.398;6.564;2023-04-15T03:58:24;8.50;73.70
53962;DHT22;39868;53.398;6.564;2023-04-15T04:00:51;8.50;73.80
53962;DHT22;39868;53.398;6.564;2023-04-15T04:03:18;8.50;73.90
53962;DHT22;39868;53.398;6.564;2023-04-15T04:05:46;8.50;74.00
53962;DHT22;39868;53.398;6.564;2023-04-15T04:08:13;8.50;74.00
53962;DHT22;39868;53.398;6.564;2023-04-15T04:10:42;8.60;74.10
53962;DHT22;39868;53.398;6.564;2023-04-15T04:13:09;8.60;73.90
53962;DHT22;39868;53.398;6.564;2023-04-15T04:15:37;8.60;73.90
53962;DHT22;39868;53.398;6.564;2023-04-15T04:18:04;8.60;73.80
53962;DHT22;39868;53.398;6.564;2023-04-15T04:20:32;8.60;73.50
53962;DHT22;39868;53.398;6.564;2023-04-15T04:22:59;8.60;73.20
53962;DHT22;39868;53.398;6.564;2023-04-15T04:25:26;8.60;73.00
53962;DHT22;39868;53.398;6.564;2023-04-15T04:27:54;8.50;72.80
53962;DHT22;39868;53.398;6.564;2023-04-15T04:30:21;8.50;72.70
53962;DHT22;39868;53.398;6.564;2023-04-15T04:32:49;8.50;73.00
53962;DHT22;39868;53.398;6.564;2023-04-15T04:35:17;8.50;73.20
53962;DHT22;39868;53.398;6.564;2023-04-15T04:37:44;8.50;73.80
53962;DHT22;39868;53.398;6.564;2023-04-15T04:40:12;8.50;74.70
53962;DHT22;39868;53.398;6.564;2023-04-15T04:42:39;8.50;75.80
53962;DHT22;39868;53.398;6.564;2023-04-15T04:45:07;8.60;76.80
53962;DHT22;39868;53.398;6.564;2023-04-15T04:47:35;8.60;77.50
53962;DHT22;39868;53.398;6.564;2023-04-15T04:50:02;8.60;78.10
53962;DHT22;39868;53.398;6.564;2023-04-15T04:52:30;8.60;78.30
53962;DHT22;39868;53.398;6.564;2023-04-15T04:54:57;8.70;78.20
53962;DHT22;39868;53.398;6.564;2023-04-15T04:57:25;8.70;78.30
53962;DHT22;39868;53.398;6.564;2023-04-15T04:59:52;8.70;78.40
53962;DHT22;39868;53.398;6.564;2023-04-15T05:02:19;8.70;78.50
53962;DHT22;39868;53.398;6.564;2023-04-15T05:04:47;8.70;78.60
53962;DHT22;39868;53.398;6.564;2023-04-15T05:07:16;8.70;78.80
53962;DHT22;39868;53.398;6.564;2023-04-15T05:09:43;8.70;78.70
53962;DHT22;39868;53.398;6.564;2023-04-15T05:12:11;8.70;78.60
53962;DHT22;39868;53.398;6.564;2023-04-15T05:14:41;8.70;78.60
53962;DHT22;39868;53.398;6.564;2023-04-15T05:17:08;8.70;78.70
53962;DHT22;39868;53.398;6.564;2023-04-15T05:19:35;8.70;79.00
53962;DHT22;39868;53.398;6.564;2023-04-15T05:22:03;8.70;79.20
53962;DHT22;39868;53.398;6.564;2023-04-15T05:24:30;8.70;80.00
53962;DHT22;39868;53.398;6.564;2023-04-15T05:26:57;8.70;80.00
53962;DHT22;39868;53.398;6.564;2023-04-15T05:29:24;8.80;80.60
53962;DHT22;39868;53.398;6.564;2023-04-15T05:31:52;8.80;81.40
53962;DHT22;39868;53.398;6.564;2023-04-15T05:34:19;8.80;81.80
53962;DHT22;39868;53.398;6.564;2023-04-15T05:36:46;8.90;82.00
53962;DHT22;39868;53.398;6.564;2023-04-15T05:39:14;9.00;82.60
53962;DHT22;39868;53.398;6.564;2023-04-15T05:41:41;9.10;83.70
53962;DHT22;39868;53.398;6.564;2023-04-15T05:44:08;9.20;83.50
53962;DHT22;39868;53.398;6.564;2023-04-15T05:46:36;9.20;83.50
53962;DHT22;39868;53.398;6.564;2023-04-15T05:49:03;9.40;83.60
53962;DHT22;39868;53.398;6.564;2023-04-15T05:51:31;9.50;84.10
53962;DHT22;39868;53.398;6.564;2023-04-15T05:53:58;9.60;84.40
53962;DHT22;39868;53.398;6.564;2023-04-15T05:56:25;9.70;84.50
53962;DHT22;39868;53.398;6.564;2023-04-15T05:58:53;9.80;84.50
53962;DHT22;39868;53.398;6.564;2023-04-15T06:01:20;9.90;84.20
53962;DHT22;39868;53.398;6.564;2023-04-15T06:03:48;10.00;84.10
53962;DHT22;39868;53.398;6.564;2023-04-15T06:06:16;10.10;84.00
53962;DHT22;39868;53.398;6.564;2023-04-15T06:08:43;10.20;84.00
53962;DHT22;39868;53.398;6.564;2023-04-15T06:11:10;10.30;84.00
53962;DHT22;39868;53.398;6.564;2023-04-15T06:13:38;10.40;84.10
53962;DHT22;39868;53.398;6.564;2023-04-15T06:16:05;10.40;83.80
53962;DHT22;39868;53.398;6.564;2023-04-15T06:18:34;10.50;83.90
53962;DHT22;39868;53.398;6.564;2023-04-15T06:21:01;10.50;83.80
53962;DHT22;39868;53.398;6.564;2023-04-15T06:23:28;10.50;83.70
53962;DHT22;39868;53.398;6.564;2023-04-15T06:25:56;10.50;83.40
53962;DHT22;39868;53.398;6.564;2023-04-15T06:28:23;10.50;83.30
53962;DHT22;39868;53.398;6.564;2023-04-15T06:30:50;10.50;83.20
53962;DHT22;39868;53.398;6.564;2023-04-15T06:33:18;10.60;83.10
53962;DHT22;39868;53.398;6.564;2023-04-15T06:35:46;10.60;83.10
53962;DHT22;39868;53.398;6.564;2023-04-15T06:38:14;10.60;83.20
53962;DHT22;39868;53.398;6.564;2023-04-15T06:40:41;10.60;82.90
53962;DHT22;39868;53.398;6.564;2023-04-15T06:43:08;10.70;82.90
53962;DHT22;39868;53.398;6.564;2023-04-15T06:45:36;10.70;83.10
53962;DHT22;39868;53.398;6.564;2023-04-15T06:48:03;10.80;82.40
53962;DHT22;39868;53.398;6.564;2023-04-15T06:50:31;10.70;81.30
53962;DHT22;39868;53.398;6.564;2023-04-15T06:52:58;10.70;80.70
53962;DHT22;39868;53.398;6.564;2023-04-15T06:55:25;10.70;80.60
53962;DHT22;39868;53.398;6.564;2023-04-15T06:57:53;10.70;80.70
53962;DHT22;39868;53.398;6.564;2023-04-15T07:00:20;10.70;80.70
53962;DHT22;39868;53.398;6.564;2023-04-15T07:02:48;10.80;81.00
53962;DHT22;39868;53.398;6.564;2023-04-15T07:05:15;10.80;81.00
53962;DHT22;39868;53.398;6.564;2023-04-15T07:07:43;10.80;81.30
53962;DHT22;39868;53.398;6.564;2023-04-15T07:10:11;10.80;81.30
53962;DHT22;39868;53.398;6.564;2023-04-15T07:12:38;10.80;81.20
53962;DHT22;39868;53.398;6.564;2023-04-15T07:15:06;10.80;81.00
53962;DHT22;39868;53.398;6.564;2023-04-15T07:17:33;10.80;81.50
53962;DHT22;39868;53.398;6.564;2023-04-15T07:20:02;10.80;81.70
53962;DHT22;39868;53.398;6.564;2023-04-15T07:22:32;10.90;81.50
53962;DHT22;39868;53.398;6.564;2023-04-15T07:25:00;10.80;81.30
53962;DHT22;39868;53.398;6.564;2023-04-15T07:27:27;10.90;81.60
53962;DHT22;39868;53.398;6.564;2023-04-15T07:29:54;10.90;81.70
53962;DHT22;39868;53.398;6.564;2023-04-15T07:32:22;10.90;81.60
53962;DHT22;39868;53.398;6.564;2023-04-15T07:34:49;10.90;81.10
53962;DHT22;39868;53.398;6.564;2023-04-15T07:37:17;10.90;81.30
53962;DHT22;39868;53.398;6.564;2023-04-15T07:39:44;10.80;80.90
53962;DHT22;39868;53.398;6.564;2023-04-15T07:42:12;10.80;81.10
53962;DHT22;39868;53.398;6.564;2023-04-15T07:44:39;10.70;80.80
53962;DHT22;39868;53.398;6.564;2023-04-15T07:47:07;10.70;81.00
53962;DHT22;39868;53.398;6.564;2023-04-15T07:49:34;10.70;81.20
53962;DHT22;39868;53.398;6.564;2023-04-15T07:52:02;10.70;81.50
53962;DHT22;39868;53.398;6.564;2023-04-15T07:54:29;10.60;81.30
53962;DHT22;39868;53.398;6.564;2023-04-15T07:56:57;10.60;81.00
53962;DHT22;39868;53.398;6.564;2023-04-15T07:59:25;10.60;81.60
53962;DHT22;39868;53.398;6.564;2023-04-15T08:01:53;10.50;80.60
53962;DHT22;39868;53.398;6.564;2023-04-15T08:04:21;10.50;80.80
53962;DHT22;39868;53.398;6.564;2023-04-15T08:06:49;10.40;80.40
53962;DHT22;39868;53.398;6.564;2023-04-15T08:09:16;10.30;80.20
53962;DHT22;39868;53.398;6.564;2023-04-15T08:11:44;10.30;80.50
53962;DHT22;39868;53.398;6.564;2023-04-15T08:14:12;10.30;81.00
53962;DHT22;39868;53.398;6.564;2023-04-15T08:16:39;10.20;80.60
53962;DHT22;39868;53.398;6.564;2023-04-15T08:19:07;10.20;81.10
53962;DHT22;39868;53.398;6.564;2023-04-15T08:21:34;10.30;81.30
53962;DHT22;39868;53.398;6.564;2023-04-15T08:24:02;10.30;81.60
53962;DHT22;39868;53.398;6.564;2023-04-15T08:26:30;10.30;81.90
53962;DHT22;39868;53.398;6.564;2023-04-15T08:28:57;10.30;80.50
53962;DHT22;39868;53.398;6.564;2023-04-15T08:31:26;10.30;80.40
53962;DHT22;39868;53.398;6.564;2023-04-15T08:33:54;10.30;80.30
53962;DHT22;39868;53.398;6.564;2023-04-15T08:36:23;10.30;80.30
53962;DHT22;39868;53.398;6.564;2023-04-15T08:38:51;10.30;80.60
53962;DHT22;39868;53.398;6.564;2023-04-15T08:41:23;10.30;80.90
53962;DHT22;39868;53.398;6.564;2023-04-15T08:44:03;10.30;81.00
53962;DHT22;39868;53.398;6.564;2023-04-15T08:46:31;10.30;81.60
53962;DHT22;39868;53.398;6.564;2023-04-15T08:49:03;10.30;81.80
53962;DHT22;39868;53.398;6.564;2023-04-15T08:51:31;10.30;81.70
53962;DHT22;39868;53.398;6.564;2023-04-15T08:54:01;10.30;81.50
53962;DHT22;39868;53.398;6.564;2023-04-15T08:56:30;10.20;81.00
53962;DHT22;39868;53.398;6.564;2023-04-15T08:58:59;10.30;81.20
53962;DHT22;39868;53.398;6.564;2023-04-15T09:01:27;10.30;80.10
53962;DHT22;39868;53.398;6.564;2023-04-15T09:03:55;10.30;80.60
53962;DHT22;39868;53.398;6.564;2023-04-15T09:06:25;10.30;80.80
53962;DHT22;39868;53.398;6.564;2023-04-15T09:08:53;10.30;81.40
53962;DHT22;39868;53.398;6.564;2023-04-15T09:11:21;10.40;81.10
53962;DHT22;39868;53.398;6.564;2023-04-15T09:13:49;10.50;80.20
53962;DHT22;39868;53.398;6.564;2023-04-15T09:16:17;10.50;80.40
53962;DHT22;39868;53.398;6.564;2023-04-15T09:18:44;10.60;81.10
53962;DHT22;39868;53.398;6.564;2023-04-15T09:21:16;10.80;81.30
53962;DHT22;39868;53.398;6.564;2023-04-15T09:23:58;10.90;79.10
53962;DHT22;39868;53.398;6.564;2023-04-15T09:26:36;11.00;78.40
53962;DHT22;39868;53.398;6.564;2023-04-15T09:29:10;11.10;78.10
53962;DHT22;39868;53.398;6.564;2023-04-15T09:31:41;11.20;78.90
53962;DHT22;39868;53.398;6.564;2023-04-15T09:34:09;11.20;76.70
53962;DHT22;39868;53.398;6.564;2023-04-15T09:39:16;11.30;76.30
53962;DHT22;39868;53.398;6.564;2023-04-15T09:41:44;11.30;76.70
53962;DHT22;39868;53.398;6.564;2023-04-15T09:44:24;11.30;76.90
53962;DHT22;39868;53.398;6.564;2023-04-15T09:46:51;11.40;78.40
53962;DHT22;39868;53.398;6.564;2023-04-15T09:49:19;11.50;78.10
53962;DHT22;39868;53.398;6.564;2023-04-15T09:51:47;11.60;78.00
53962;DHT22;39868;53.398;6.564;2023-04-15T09:54:35;11.60;77.20
53962;DHT22;39868;53.398;6.564;2023-04-15T09:57:08;11.70;76.70
53962;DHT22;39868;53.398;6.564;2023-04-15T09:59:36;11.70;77.60
53962;DHT22;39868;53.398;6.564;2023-04-15T10:02:04;11.70;77.60
53962;DHT22;39868;53.398;6.564;2023-04-15T10:04:39;11.70;77.50
53962;DHT22;39868;53.398;6.564;2023-04-15T10:07:08;11.80;77.70
53962;DHT22;39868;53.398;6.564;2023-04-15T10:09:39;11.80;77.40
53962;DHT22;39868;53.398;6.564;2023-04-15T10:12:07;11.80;77.50
53962;DHT22;39868;53.398;6.564;2023-04-15T10:14:37;11.90;77.30
53962;DHT22;39868;53.398;6.564;2023-04-15T10:17:05;11.90;77.10
53962;DHT22;39868;53.398;6.564;2023-04-15T10:19:36;11.90;76.20
53962;DHT22;39868;53.398;6.564;2023-04-15T10:22:04;11.90;77.00
53962;DHT22;39868;53.398;6.564;2023-04-15T10:24:32;11.90;76.00
53962;DHT22;39868;53.398;6.564;2023-04-15T10:27:00;11.90;77.20
53962;DHT22;39868;53.398;6.564;2023-04-15T10:29:29;11.90;77.80
53962;DHT22;39868;53.398;6.564;2023-04-15T10:31:58;11.90;76.00
53962;DHT22;39868;53.398;6.564;2023-04-15T10:34:26;11.90;76.40
53962;DHT22;39868;53.398;6.564;2023-04-15T10:37:03;11.90;76.00
53962;DHT22;39868;53.398;6.564;2023-04-15T10:42:09;11.80;77.60
53962;DHT22;39868;53.398;6.564;2023-04-15T10:44:41;11.90;76.70
53962;DHT22;39868;53.398;6.564;2023-04-15T10:47:19;11.90;75.80
53962;DHT22;39868;53.398;6.564;2023-04-15T10:49:58;12.00;77.10
53962;DHT22;39868;53.398;6.564;2023-04-15T10:52:27;12.00;75.30
53962;DHT22;39868;53.398;6.564;2023-04-15T10:55:18;12.00;75.20
53962;DHT22;39868;53.398;6.564;2023-04-15T10:57:46;12.00;75.70
53962;DHT22;39868;53.398;6.564;2023-04-15T11:00:18;12.00;75.30
53962;DHT22;39868;53.398;6.564;2023-04-15T11:02:53;12.00;76.00
53962;DHT22;39868;53.398;6.564;2023-04-15T11:08:12;12.00;75.90
53962;DHT22;39868;53.398;6.564;2023-04-15T11:18:10;11.80;76.30
53962;DHT22;39868;53.398;6.564;2023-04-15T11:20:39;11.80;76.10
53962;DHT22;39868;53.398;6.564;2023-04-15T11:23:07;11.70;76.10
53962;DHT22;39868;53.398;6.564;2023-04-15T11:25:41;11.70;75.80
53962;DHT22;39868;53.398;6.564;2023-04-15T11:28:11;11.70;77.00
53962;DHT22;39868;53.398;6.564;2023-04-15T11:30:39;11.70;76.00
53962;DHT22;39868;53.398;6.564;2023-04-15T11:33:09;11.70;76.30
53962;DHT22;39868;53.398;6.564;2023-04-15T11:35:37;11.70;77.10
53962;DHT22;39868;53.398;6.564;2023-04-15T11:38:05;11.70;77.80
53962;DHT22;39868;53.398;6.564;2023-04-15T11:40:34;11.70;76.30
53962;DHT22;39868;53.398;6.564;2023-04-15T11:43:21;11.60;76.10
53962;DHT22;39868;53.398;6.564;2023-04-15T11:48:23;11.50;77.00
53962;DHT22;39868;53.398;6.564;2023-04-15T11:50:59;11.50;77.60
53962;DHT22;39868;53.398;6.564;2023-04-15T11:53:47;11.60;77.60
53962;DHT22;39868;53.398;6.564;2023-04-15T11:56:22;11.60;77.20
53962;DHT22;39868;53.398;6.564;2023-04-15T11:58:55;11.60;77.40
53962;DHT22;39868;53.398;6.564;2023-04-15T12:01:33;11.60;77.90
53962;DHT22;39868;53.398;6.564;2023-04-15T12:04:10;11.60;77.80
53962;DHT22;39868;53.398;6.564;2023-04-15T12:06:39;11.60;77.80
53962;DHT22;39868;53.398;6.564;2023-04-15T12:09:16;11.60;77.90
53962;DHT22;39868;53.398;6.564;2023-04-15T12:11:48;11.70;79.20
53962;DHT22;39868;53.398;6.564;2023-04-15T12:14:26;11.70;79.20
53962;DHT22;39868;53.398;6.564;2023-04-15T12:16:59;11.70;78.70
53962;DHT22;39868;53.398;6.564;2023-04-15T12:19:29;11.70;79.00
53962;DHT22;39868;53.398;6.564;2023-04-15T12:22:03;11.70;79.00
53962;DHT22;39868;53.398;6.564;2023-04-15T12:24:32;11.70;79.00
53962;DHT22;39868;53.398;6.564;2023-04-15T12:27:07;11.80;79.30
53962;DHT22;39868;53.398;6.564;2023-04-15T12:29:36;11.80;79.60
53962;DHT22;39868;53.398;6.564;2023-04-15T12:32:09;11.80;79.00
53962;DHT22;39868;53.398;6.564;2023-04-15T12:34:39;11.70;78.30
53962;DHT22;39868;53.398;6.564;2023-04-15T12:37:08;11.60;79.20
53962;DHT22;39868;53.398;6.564;2023-04-15T12:39:38;11.70;79.70
53962;DHT22;39868;53.398;6.564;2023-04-15T12:42:07;11.60;79.90
53962;DHT22;39868;53.398;6.564;2023-04-15T12:44:35;11.60;81.00
53962;DHT22;39868;53.398;6.564;2023-04-15T12:47:03;11.60;81.70
53962;DHT22;39868;53.398;6.564;2023-04-15T12:49:31;11.70;81.80
53962;DHT22;39868;53.398;6.564;2023-04-15T12:52:00;11.60;81.00
53962;DHT22;39868;53.398;6.564;2023-04-15T12:54:29;11.60;80.80
53962;DHT22;39868;53.398;6.564;2023-04-15T12:56:57;11.60;81.50
53962;DHT22;39868;53.398;6.564;2023-04-15T12:59:25;11.50;81.60
53962;DHT22;39868;53.398;6.564;2023-04-15T13:01:53;11.40;82.50
53962;DHT22;39868;53.398;6.564;2023-04-15T13:04:20;11.30;82.20
53962;DHT22;39868;53.398;6.564;2023-04-15T13:06:49;11.30;82.60
53962;DHT22;39868;53.398;6.564;2023-04-15T13:09:16;11.10;82.70
53962;DHT22;39868;53.398;6.564;2023-04-15T13:11:44;11.00;83.20
53962;DHT22;39868;53.398;6.564;2023-04-15T13:14:11;10.90;83.90
53962;DHT22;39868;53.398;6.564;2023-04-15T13:16:39;10.90;84.50
53962;DHT22;39868;53.398;6.564;2023-04-15T13:19:06;10.90;84.50
53962;DHT22;39868;53.398;6.564;2023-04-15T13:21:34;10.90;84.80
53962;DHT22;39868;53.398;6.564;2023-04-15T13:24:03;10.90;85.10
53962;DHT22;39868;53.398;6.564;2023-04-15T13:26:31;10.80;85.20
53962;DHT22;39868;53.398;6.564;2023-04-15T13:28:59;10.80;85.50
53962;DHT22;39868;53.398;6.564;2023-04-15T13:31:27;10.80;85.60
53962;DHT22;39868;53.398;6.564;2023-04-15T13:33:55;10.80;85.50
53962;DHT22;39868;53.398;6.564;2023-04-15T13:36:23;10.80;85.40
53962;DHT22;39868;53.398;6.564;2023-04-15T13:38:50;10.80;85.70
53962;DHT22;39868;53.398;6.564;2023-04-15T13:41:18;10.90;85.80
53962;DHT22;39868;53.398;6.564;2023-04-15T13:43:47;10.90;85.60
53962;DHT22;39868;53.398;6.564;2023-04-15T13:46:14;10.90;85.60
53962;DHT22;39868;53.398;6.564;2023-04-15T13:48:42;10.90;85.70
53962;DHT22;39868;53.398;6.564;2023-04-15T13:51:09;10.90;86.00
53962;DHT22;39868;53.398;6.564;2023-04-15T13:53:36;10.90;86.00
53962;DHT22;39868;53.398;6.564;2023-04-15T13:56:06;10.90;85.80
53962;DHT22;39868;53.398;6.564;2023-04-15T13:58:34;10.90;86.50
53962;DHT22;39868;53.398;6.564;2023-04-15T14:01:02;10.90;86.20
53962;DHT22;39868;53.398;6.564;2023-04-15T14:03:33;10.90;86.30
53962;DHT22;39868;53.398;6.564;2023-04-15T14:06:01;10.90;86.30
53962;DHT22;39868;53.398;6.564;2023-04-15T14:08:29;10.90;86.10
53962;DHT22;39868;53.398;6.564;2023-04-15T14:10:56;10.90;86.60
53962;DHT22;39868;53.398;6.564;2023-04-15T14:13:24;10.90;86.10
53962;DHT22;39868;53.398;6.564;2023-04-15T14:15:51;11.00;86.20
53962;DHT22;39868;53.398;6.564;2023-04-15T14:18:19;10.80;85.60
53962;DHT22;39868;53.398;6.564;2023-04-15T14:20:46;10.90;86.00
53962;DHT22;39868;53.398;6.564;2023-04-15T14:23:13;10.90;86.20
53962;DHT22;39868;53.398;6.564;2023-04-15T14:25:41;10.90;85.90
53962;DHT22;39868;53.398;6.564;2023-04-15T14:28:08;10.90;85.60
53962;DHT22;39868;53.398;6.564;2023-04-15T14:30:35;10.90;85.60
53962;DHT22;39868;53.398;6.564;2023-04-15T14:33:03;10.90;85.50
53962;DHT22;39868;53.398;6.564;2023-04-15T14:35:30;10.90;85.60
53962;DHT22;39868;53.398;6.564;2023-04-15T14:37:58;10.80;85.70
53962;DHT22;39868;53.398;6.564;2023-04-15T14:40:25;10.80;85.60
53962;DHT22;39868;53.398;6.564;2023-04-15T14:42:53;10.70;85.50
53962;DHT22;39868;53.398;6.564;2023-04-15T14:45:20;10.70;85.60
53962;DHT22;39868;53.398;6.564;2023-04-15T14:47:47;10.70;85.40
53962;DHT22;39868;53.398;6.564;2023-04-15T14:50:15;10.70;85.60
53962;DHT22;39868;53.398;6.564;2023-04-15T14:52:43;10.70;85.70
53962;DHT22;39868;53.398;6.564;2023-04-15T14:55:11;10.70;86.00
53962;DHT22;39868;53.398;6.564;2023-04-15T14:57:40;10.60;85.70
53962;DHT22;39868;53.398;6.564;2023-04-15T15:00:09;10.60;85.70
53962;DHT22;39868;53.398;6.564;2023-04-15T15:02:42;10.60;85.80
53962;DHT22;39868;53.398;6.564;2023-04-15T15:05:10;10.70;85.50
53962;DHT22;39868;53.398;6.564;2023-04-15T15:07:38;10.60;85.60
53962;DHT22;39868;53.398;6.564;2023-04-15T15:10:07;10.70;85.70
53962;DHT22;39868;53.398;6.564;2023-04-15T15:12:34;10.60;85.70
53962;DHT22;39868;53.398;6.564;2023-04-15T15:15:03;10.70;85.80
53962;DHT22;39868;53.398;6.564;2023-04-15T15:17:41;10.70;85.50
53962;DHT22;39868;53.398;6.564;2023-04-15T15:20:09;10.60;85.40
53962;DHT22;39868;53.398;6.564;2023-04-15T15:22:36;10.60;85.50
53962;DHT22;39868;53.398;6.564;2023-04-15T15:25:04;10.60;85.40
53962;DHT22;39868;53.398;6.564;2023-04-15T15:27:32;10.70;85.40
53962;DHT22;39868;53.398;6.564;2023-04-15T15:29:59;10.50;85.40
53962;DHT22;39868;53.398;6.564;2023-04-15T15:32:26;10.50;85.70
53962;DHT22;39868;53.398;6.564;2023-04-15T15:34:54;10.50;85.70
53962;DHT22;39868;53.398;6.564;2023-04-15T15:37:21;10.50;85.70
53962;DHT22;39868;53.398;6.564;2023-04-15T15:39:48;10.50;85.70
53962;DHT22;39868;53.398;6.564;2023-04-15T15:42:18;10.50;85.90
53962;DHT22;39868;53.398;6.564;2023-04-15T15:44:45;10.40;86.10
53962;DHT22;39868;53.398;6.564;2023-04-15T15:47:15;10.40;85.90
53962;DHT22;39868;53.398;6.564;2023-04-15T15:49:43;10.40;86.20
53962;DHT22;39868;53.398;6.564;2023-04-15T15:52:10;10.30;86.30
53962;DHT22;39868;53.398;6.564;2023-04-15T15:54:39;10.30;86.40
53962;DHT22;39868;53.398;6.564;2023-04-15T15:57:07;10.30;86.70
53962;DHT22;39868;53.398;6.564;2023-04-15T15:59:34;10.40;86.40
53962;DHT22;39868;53.398;6.564;2023-04-15T16:02:01;10.40;86.40
53962;DHT22;39868;53.398;6.564;2023-04-15T16:04:29;10.30;86.60
53962;DHT22;39868;53.398;6.564;2023-04-15T16:06:57;10.30;86.50